createdAt,value
2022-08-07T00:00:28.072Z,20.50
2022-08-07T00:02:57.100Z,20.50
2022-08-07T00:05:25.959Z,20.50
2022-08-07T00:07:59.821Z,20.50
2022-08-07T00:10:29.708Z,20.40
2022-08-07T00:13:02.068Z,20.40
2022-08-07T00:15:36.006Z,20.40
2022-08-07T00:18:09.088Z,20.30
2022-08-07T00:20:49.390Z,20.40
2022-08-07T00:23:21.144Z,20.40
2022-08-07T00:25:59.023Z,20.40
2022-08-07T00:28:33.599Z,20.30
2022-08-07T00:31:06.054Z,20.20
2022-08-07T00:33:35.633Z,20.20
2022-08-07T00:36:05.208Z,20.20
2022-08-07T00:38:36.738Z,20.10
2022-08-07T00:41:10.081Z,20.00
2022-08-07T00:44:01.309Z,19.90
2022-08-07T00:46:32.930Z,19.80
2022-08-07T00:49:03.254Z,19.80
2022-08-07T00:51:57.479Z,19.70
2022-08-07T00:54:22.523Z,19.60
2022-08-07T00:56:51.914Z,19.60
2022-08-07T00:59:32.463Z,19.50
2022-08-07T01:02:08.993Z,19.50
2022-08-07T01:05:24.605Z,19.60
2022-08-07T01:07:53.165Z,19.50
2022-08-07T01:10:25.236Z,19.50
2022-08-07T01:12:54.888Z,19.50
2022-08-07T01:16:01.140Z,19.50
2022-08-07T01:18:17.062Z,19.50
2022-08-07T01:21:03.837Z,19.50
2022-08-07T01:23:48.385Z,19.40
2022-08-07T01:26:20.273Z,19.30
2022-08-07T01:28:54.820Z,19.30
2022-08-07T01:31:27.948Z,19.30
2022-08-07T01:34:10.400Z,19.30
2022-08-07T01:36:40.855Z,19.30
2022-08-07T01:39:10.104Z,19.30
2022-08-07T01:41:40.809Z,19.20
2022-08-07T01:44:28.607Z,19.20
2022-08-07T01:47:01.240Z,19.10
2022-08-07T01:49:42.978Z,19.10
2022-08-07T01:52:13.468Z,19.10
2022-08-07T01:54:44.614Z,19.10
2022-08-07T01:58:01.622Z,19.00
2022-08-07T02:00:28.710Z,19.00
2022-08-07T02:03:19.417Z,19.00
2022-08-07T02:05:59.580Z,19.00
2022-08-07T02:08:31.540Z,19.00
2022-08-07T02:11:03.571Z,19.00
2022-08-07T02:13:57.412Z,19.00
2022-08-07T02:17:08.447Z,19.10
2022-08-07T02:20:04.819Z,19.10
2022-08-07T02:22:28.089Z,19.20
2022-08-07T02:24:59.797Z,19.20
2022-08-07T02:27:34.414Z,19.40
2022-08-07T02:30:07.330Z,19.50
2022-08-07T02:32:38.750Z,19.70
2022-08-07T02:36:28.988Z,19.70
2022-08-07T02:38:55.302Z,19.60
2022-08-07T02:41:33.316Z,19.50
2022-08-07T02:44:06.606Z,19.50
2022-08-07T02:46:38.084Z,19.50
2022-08-07T02:49:56.169Z,19.60
2022-08-07T02:52:06.175Z,19.60
2022-08-07T02:54:41.666Z,19.70
2022-08-07T02:57:14.358Z,19.70
2022-08-07T02:59:55.254Z,19.70
2022-08-07T03:02:29.932Z,19.80
2022-08-07T03:04:59.885Z,19.80
2022-08-07T03:07:58.941Z,19.80
2022-08-07T03:10:23.694Z,19.80
2022-08-07T03:13:19.894Z,19.80
2022-08-07T03:15:56.278Z,19.80
2022-08-07T03:18:34.534Z,19.80
2022-08-07T03:21:08.473Z,19.80
2022-08-07T03:24:20.897Z,19.80
2022-08-07T03:26:59.147Z,19.80
2022-08-07T03:29:33.776Z,19.80
2022-08-07T03:32:12.798Z,19.90
2022-08-07T03:34:47.267Z,19.80
2022-08-07T03:37:32.854Z,19.90
2022-08-07T03:40:16.898Z,19.90
2022-08-07T03:42:45.999Z,19.90
2022-08-07T03:45:29.779Z,19.90
2022-08-07T03:47:59.999Z,19.90
2022-08-07T03:50:30.350Z,19.90
2022-08-07T03:53:00.281Z,19.90
2022-08-07T03:55:52.905Z,20.00
2022-08-07T03:59:04.641Z,20.00
2022-08-07T04:01:11.713Z,20.10
2022-08-07T04:03:53.845Z,20.20
2022-08-07T04:06:37.553Z,20.30
2022-08-07T04:09:15.417Z,20.40
2022-08-07T04:12:23.603Z,20.50
2022-08-07T04:14:38.848Z,20.60
2022-08-07T04:17:21.255Z,20.70
2022-08-07T04:19:54.030Z,20.70
2022-08-07T04:22:27.530Z,20.80
2022-08-07T04:25:00.858Z,20.80
2022-08-07T04:27:35.840Z,20.80
2022-08-07T04:30:21.044Z,20.80
2022-08-07T04:32:58.835Z,20.90
2022-08-07T04:35:35.005Z,20.90
2022-08-07T04:38:07.890Z,20.90
2022-08-07T04:40:51.417Z,20.90
2022-08-07T04:44:09.825Z,20.90
2022-08-07T04:46:20.074Z,21.00
2022-08-07T04:49:07.471Z,20.90
2022-08-07T04:51:54.018Z,20.90
2022-08-07T04:54:35.154Z,20.90
2022-08-07T04:58:09.810Z,20.90
2022-08-07T05:00:10.703Z,20.90
2022-08-07T05:02:49.868Z,20.90
2022-08-07T05:05:52.195Z,20.90
2022-08-07T05:09:00.047Z,21.00
2022-08-07T05:11:58.363Z,21.10
2022-08-07T05:14:53.263Z,21.20
2022-08-07T05:17:50.887Z,21.30
2022-08-07T05:20:12.902Z,21.40
2022-08-07T05:22:45.444Z,21.60
2022-08-07T05:25:37.352Z,21.80
2022-08-07T05:28:20.031Z,22.00
2022-08-07T05:30:55.127Z,22.20
2022-08-07T05:33:26.062Z,22.40
2022-08-07T05:35:56.315Z,22.70
2022-08-07T05:38:59.634Z,22.80
2022-08-07T05:41:16.886Z,22.90
2022-08-07T05:44:11.693Z,22.90
2022-08-07T05:46:39.456Z,23.00
2022-08-07T05:49:12.557Z,23.00
2022-08-07T05:51:56.624Z,23.00
2022-08-07T05:54:30.845Z,23.00
2022-08-07T05:57:13.570Z,23.00
2022-08-07T05:59:55.976Z,23.20
2022-08-07T06:02:30.494Z,23.40
2022-08-07T06:05:03.858Z,23.60
2022-08-07T06:08:13.996Z,23.90
2022-08-07T06:10:24.601Z,24.30
2022-08-07T06:12:54.847Z,24.60
2022-08-07T06:15:39.149Z,24.90
2022-08-07T06:18:13.999Z,25.10
2022-08-07T06:20:50.229Z,25.40
2022-08-07T06:24:37.428Z,25.50
2022-08-07T06:26:27.259Z,25.70
2022-08-07T06:29:01.360Z,25.90
2022-08-07T06:31:46.774Z,26.00
2022-08-07T06:34:20.881Z,26.10
2022-08-07T06:36:52.116Z,26.30
2022-08-07T06:40:16.346Z,26.50
2022-08-07T06:42:17.618Z,26.70
2022-08-07T06:44:51.297Z,26.80
2022-08-07T06:47:21.036Z,26.90
2022-08-07T06:49:52.486Z,26.90
2022-08-07T06:52:31.256Z,26.90
2022-08-07T06:55:34.050Z,26.90
2022-08-07T06:58:00.346Z,26.90
2022-08-07T07:00:32.277Z,27.00
2022-08-07T07:03:08.823Z,27.20
2022-08-07T07:06:04.237Z,27.20
2022-08-07T07:08:31.030Z,27.30
2022-08-07T07:11:01.716Z,27.30
2022-08-07T07:13:58.760Z,27.50
2022-08-07T07:16:45.195Z,27.50
2022-08-07T07:19:56.049Z,27.60
2022-08-07T07:22:36.805Z,27.70
2022-08-07T07:25:14.484Z,27.80
2022-08-07T07:28:02.349Z,27.90
2022-08-07T07:30:40.116Z,27.90
2022-08-07T07:33:12.385Z,28.00
2022-08-07T07:36:05.623Z,28.10
2022-08-07T07:38:36.169Z,28.20
2022-08-07T07:41:50.351Z,28.30
2022-08-07T07:44:25.909Z,28.50
2022-08-07T07:47:11.967Z,28.60
2022-08-07T07:50:35.168Z,28.50
2022-08-07T07:52:39.461Z,28.40
2022-08-07T07:55:10.900Z,28.30
2022-08-07T07:57:43.846Z,28.50
2022-08-07T08:00:29.758Z,28.60
2022-08-07T08:03:08.411Z,28.70
2022-08-07T08:05:59.231Z,28.90
2022-08-07T08:08:34.581Z,29.10
2022-08-07T08:11:16.005Z,29.10
2022-08-07T08:13:54.570Z,29.10
2022-08-07T08:16:36.292Z,28.90
2022-08-07T08:20:19.057Z,28.80
2022-08-07T08:22:54.093Z,28.90
2022-08-07T08:25:49.262Z,29.10
2022-08-07T08:28:38.101Z,29.40
2022-08-07T08:31:14.842Z,29.40
2022-08-07T08:33:49.337Z,29.40
2022-08-07T08:36:25.727Z,29.30
2022-08-07T08:39:01.907Z,29.40
2022-08-07T08:41:57.882Z,29.40
2022-08-07T08:44:39.572Z,29.40
2022-08-07T08:47:27.315Z,29.30
2022-08-07T08:50:05.826Z,29.30
2022-08-07T08:52:40.979Z,29.20
2022-08-07T08:55:54.914Z,29.20
2022-08-07T08:58:28.442Z,29.50
2022-08-07T09:01:15.080Z,29.70
2022-08-07T09:04:13.462Z,30.00
2022-08-07T09:06:52.134Z,29.90
2022-08-07T09:09:43.315Z,29.70
2022-08-07T09:12:31.142Z,29.50
2022-08-07T09:16:22.310Z,29.50
2022-08-07T09:18:22.657Z,29.40
2022-08-07T09:21:01.201Z,29.30
2022-08-07T09:24:31.403Z,29.20
2022-08-07T09:26:40.200Z,29.20
2022-08-07T09:30:08.498Z,29.20
2022-08-07T09:32:58.431Z,29.40
2022-08-07T09:36:03.238Z,29.70
2022-08-07T09:38:41.778Z,29.90
2022-08-07T09:41:19.825Z,29.90
2022-08-07T09:44:07.039Z,29.80
2022-08-07T09:47:49.711Z,29.90
2022-08-07T09:50:19.453Z,30.00
2022-08-07T09:52:54.112Z,30.00
2022-08-07T09:55:29.766Z,30.00
2022-08-07T09:58:42.254Z,30.10
2022-08-07T10:01:51.275Z,30.20
2022-08-07T10:05:12.811Z,30.10
2022-08-07T10:07:58.471Z,29.90
2022-08-07T10:11:17.177Z,29.70
2022-08-07T10:14:13.756Z,29.90
2022-08-07T10:17:14.361Z,30.00
2022-08-07T10:19:58.299Z,29.90
2022-08-07T10:22:47.541Z,29.80
2022-08-07T10:25:52.947Z,29.60
2022-08-07T10:28:49.708Z,29.70
2022-08-07T10:31:38.768Z,29.90
2022-08-07T10:34:27.360Z,30.10
2022-08-07T10:37:14.890Z,30.40
2022-08-07T10:40:05.421Z,30.30
2022-08-07T10:42:40.064Z,30.20
2022-08-07T10:45:43.975Z,30.20
2022-08-07T10:48:36.087Z,30.10
2022-08-07T10:51:16.682Z,30.20
2022-08-07T10:54:09.534Z,30.30
2022-08-07T10:56:47.614Z,30.50
2022-08-07T10:59:30.209Z,30.70
2022-08-07T11:02:11.944Z,30.90
2022-08-07T11:05:10.763Z,30.90
2022-08-07T11:07:59.277Z,30.60
2022-08-07T11:10:39.311Z,30.40
2022-08-07T11:14:44.241Z,30.50
2022-08-07T11:16:29.974Z,30.50
2022-08-07T11:19:06.931Z,30.30
2022-08-07T11:21:46.630Z,30.30
2022-08-07T11:24:22.966Z,30.40
2022-08-07T11:26:56.916Z,30.20
2022-08-07T11:29:42.033Z,30.10
2022-08-07T11:32:25.348Z,30.00
2022-08-07T11:35:32.201Z,29.90
2022-08-07T11:38:12.926Z,29.90
2022-08-07T11:40:52.283Z,30.10
2022-08-07T11:43:29.433Z,30.30
2022-08-07T11:46:19.521Z,30.20
2022-08-07T11:49:27.605Z,29.90
2022-08-07T11:52:29.003Z,29.60
2022-08-07T11:55:18.598Z,29.40
2022-08-07T11:58:01.521Z,29.50
2022-08-07T12:00:38.895Z,29.60
2022-08-07T12:03:45.063Z,29.60
2022-08-07T12:06:37.801Z,29.70
2022-08-07T12:09:16.555Z,29.70
2022-08-07T12:12:14.625Z,29.90
2022-08-07T12:15:17.339Z,29.90
2022-08-07T12:18:11.586Z,29.60
2022-08-07T12:20:49.374Z,29.60
2022-08-07T12:24:06.351Z,29.60
2022-08-07T12:26:29.884Z,29.50
2022-08-07T12:29:38.358Z,29.30
2022-08-07T12:32:22.424Z,29.40
2022-08-07T12:35:19.778Z,29.40
2022-08-07T12:38:09.333Z,29.60
2022-08-07T12:40:47.757Z,29.70
2022-08-07T12:44:02.622Z,29.40
2022-08-07T12:46:26.390Z,29.20
2022-08-07T12:49:39.836Z,28.90
2022-08-07T12:52:13.727Z,28.70
2022-08-07T12:54:54.545Z,28.70
2022-08-07T12:57:38.763Z,29.00
2022-08-07T13:00:31.297Z,29.10
2022-08-07T13:03:26.874Z,29.00
2022-08-07T13:06:26.907Z,28.90
2022-08-07T13:09:12.547Z,28.80
2022-08-07T13:12:10.126Z,28.90
2022-08-07T13:18:03.537Z,29.10
2022-08-07T13:20:41.348Z,29.40
2022-08-07T13:24:04.034Z,29.60
2022-08-07T13:26:20.585Z,29.60
2022-08-07T13:29:02.226Z,29.60
2022-08-07T13:31:46.213Z,29.60
2022-08-07T13:34:35.559Z,29.60
2022-08-07T13:37:10.781Z,29.60
2022-08-07T13:40:35.554Z,29.60
2022-08-07T13:42:47.250Z,29.60
2022-08-07T13:46:11.830Z,29.60
2022-08-07T13:48:10.493Z,29.80
2022-08-07T13:51:00.595Z,29.90
2022-08-07T13:54:01.614Z,30.00
2022-08-07T13:56:41.253Z,30.00
2022-08-07T13:59:25.383Z,30.00
2022-08-07T14:02:04.568Z,29.80
2022-08-07T14:04:37.971Z,29.60
2022-08-07T14:07:25.559Z,29.30
2022-08-07T14:10:28.051Z,28.60
2022-08-07T14:13:03.789Z,27.70
2022-08-07T14:15:36.730Z,27.00
2022-08-07T14:18:27.367Z,26.50
2022-08-07T14:21:08.228Z,26.20
2022-08-07T14:24:00.885Z,25.80
2022-08-07T14:26:40.628Z,25.60
2022-08-07T14:30:09.345Z,25.50
2022-08-07T14:32:56.706Z,25.40
2022-08-07T14:38:30.699Z,25.30
2022-08-07T14:41:04.334Z,25.10
2022-08-07T14:43:57.572Z,25.00
2022-08-07T14:46:35.690Z,25.00
2022-08-07T14:49:55.753Z,25.10
2022-08-07T14:52:21.505Z,25.00
2022-08-07T14:54:56.750Z,25.10
2022-08-07T14:57:55.278Z,25.20
2022-08-07T15:00:20.784Z,25.20
2022-08-07T15:03:16.701Z,25.30
2022-08-07T15:05:54.778Z,25.40
2022-08-07T15:11:54.081Z,25.30
2022-08-07T15:14:31.870Z,25.30
2022-08-07T15:17:04.179Z,25.30
2022-08-07T15:22:53.911Z,25.70
2022-08-07T15:25:25.648Z,25.90
2022-08-07T15:28:34.390Z,26.00
2022-08-07T15:31:04.753Z,26.20
2022-08-07T15:33:36.758Z,26.20
2022-08-07T15:36:11.941Z,26.20
2022-08-07T15:38:51.919Z,26.30
2022-08-07T15:44:24.103Z,26.40
2022-08-07T15:47:03.370Z,26.50
2022-08-07T15:50:05.273Z,26.50
2022-08-07T15:52:31.328Z,26.60
2022-08-07T15:55:08.986Z,26.70
2022-08-07T15:57:48.503Z,26.70
2022-08-07T16:00:33.371Z,26.80
2022-08-07T16:03:22.071Z,26.90
2022-08-07T16:06:02.994Z,26.90
2022-08-07T16:08:38.588Z,26.90
2022-08-07T16:11:17.368Z,26.80
2022-08-07T16:14:10.451Z,26.70
2022-08-07T16:17:15.020Z,26.60
2022-08-07T16:20:07.250Z,26.50
2022-08-07T16:23:05.235Z,26.50
2022-08-07T16:26:01.870Z,26.40
2022-08-07T16:30:05.664Z,26.30
2022-08-07T16:32:00.735Z,26.10
2022-08-07T16:34:45.350Z,26.00
2022-08-07T16:38:04.748Z,25.80
2022-08-07T16:41:41.588Z,25.70
2022-08-07T16:45:15.121Z,25.40
2022-08-07T16:48:28.821Z,25.20
2022-08-07T16:51:21.765Z,24.90
2022-08-07T16:54:12.195Z,24.80
2022-08-07T16:57:03.187Z,24.70
2022-08-07T16:59:46.773Z,24.80
2022-08-07T17:02:51.311Z,24.80
2022-08-07T17:06:29.573Z,24.90
2022-08-07T17:09:14.363Z,24.80
2022-08-07T17:12:34.303Z,24.70
2022-08-07T17:15:08.706Z,24.50
2022-08-07T17:17:50.492Z,24.40
2022-08-07T17:20:33.644Z,24.30
2022-08-07T17:23:11.516Z,24.20
2022-08-07T17:26:22.938Z,24.10
2022-08-07T17:29:08.289Z,23.90
2022-08-07T17:32:02.811Z,23.80
2022-08-07T17:34:57.181Z,23.70
2022-08-07T17:38:06.261Z,23.70
2022-08-07T17:40:30.384Z,23.50
2022-08-07T17:43:14.932Z,23.50
2022-08-07T17:46:10.065Z,23.40
2022-08-07T17:48:51.848Z,23.40
2022-08-07T17:51:23.692Z,23.40
2022-08-07T17:54:11.547Z,23.30
2022-08-07T17:56:49.658Z,23.20
2022-08-07T17:59:50.615Z,23.20
2022-08-07T18:02:29.288Z,23.10
2022-08-07T18:05:20.963Z,23.10
2022-08-07T18:08:15.384Z,23.20
2022-08-07T18:12:06.877Z,23.10
2022-08-07T18:13:48.358Z,23.10
2022-08-07T18:16:32.674Z,23.10
2022-08-07T18:21:11.034Z,23.00
2022-08-07T18:22:29.004Z,23.00
2022-08-07T18:25:23.992Z,22.90
2022-08-07T18:28:34.202Z,22.90
2022-08-07T18:31:08.536Z,22.80
2022-08-07T18:34:37.716Z,22.80
2022-08-07T18:37:15.189Z,22.70
2022-08-07T18:40:43.939Z,22.70
2022-08-07T18:43:36.723Z,22.70
2022-08-07T18:46:25.457Z,22.70
2022-08-07T18:50:32.680Z,22.70
2022-08-07T18:52:34.835Z,22.60
2022-08-07T18:55:57.347Z,22.60
2022-08-07T18:58:51.173Z,22.60
2022-08-07T19:02:32.333Z,22.60
2022-08-07T19:04:38.911Z,22.60
2022-08-07T19:07:34.759Z,22.60
2022-08-07T19:10:10.958Z,22.50
2022-08-07T19:12:57.830Z,22.50
2022-08-07T19:16:04.274Z,22.50
2022-08-07T19:18:37.349Z,22.40
2022-08-07T19:21:45.024Z,22.40
2022-08-07T19:24:30.126Z,22.40
2022-08-07T19:28:58.136Z,22.40
2022-08-07T19:30:57.101Z,22.40
2022-08-07T19:33:14.983Z,22.30
2022-08-07T19:35:51.978Z,22.30
2022-08-07T19:38:22.601Z,22.20
2022-08-07T19:41:00.716Z,22.20
2022-08-07T19:43:45.024Z,22.20
2022-08-07T19:46:26.724Z,22.20
2022-08-07T19:49:05.581Z,22.10
2022-08-07T19:51:52.343Z,22.10
2022-08-07T19:54:33.555Z,22.10
2022-08-07T19:58:01.165Z,22.10
2022-08-07T19:59:58.945Z,22.20
2022-08-07T20:02:31.213Z,22.20
2022-08-07T20:05:03.937Z,22.10
2022-08-07T20:07:46.055Z,22.00
2022-08-07T20:10:37.974Z,21.90
2022-08-07T20:13:23.533Z,21.90
2022-08-07T20:15:57.805Z,21.90
2022-08-07T20:18:32.866Z,21.80
2022-08-07T20:21:14.420Z,21.80
2022-08-07T20:24:18.623Z,21.70
2022-08-07T20:26:50.145Z,21.60
2022-08-07T20:29:49.268Z,21.60
2022-08-07T20:32:22.702Z,21.50
2022-08-07T20:34:57.294Z,21.40
2022-08-07T20:37:32.167Z,21.40
2022-08-07T20:40:05.421Z,21.30
2022-08-07T20:42:56.224Z,21.30
2022-08-07T20:45:33.093Z,21.30
2022-08-07T20:48:28.421Z,21.20
2022-08-07T20:51:35.541Z,21.20
2022-08-07T20:54:29.765Z,21.20
2022-08-07T20:57:03.730Z,21.10
2022-08-07T21:00:08.448Z,21.00
2022-08-07T21:02:54.411Z,20.90
2022-08-07T21:05:50.655Z,20.90
2022-08-07T21:08:43.287Z,20.90
2022-08-07T21:11:18.515Z,20.90
2022-08-07T21:14:16.847Z,20.80
2022-08-07T21:18:01.265Z,20.60
2022-08-07T21:20:26.463Z,20.60
2022-08-07T21:23:07.573Z,20.60
2022-08-07T21:26:06.804Z,20.50
2022-08-07T21:28:48.429Z,20.50
2022-08-07T21:31:49.901Z,20.40
2022-08-07T21:34:26.682Z,20.30
2022-08-07T21:37:08.263Z,20.20
2022-08-07T21:39:55.053Z,20.10
2022-08-07T21:42:42.663Z,20.10
2022-08-07T21:46:10.901Z,20.10
2022-08-07T21:49:04.658Z,20.10
2022-08-07T21:51:51.096Z,20.10
2022-08-07T21:54:31.654Z,20.10
2022-08-07T21:57:15.990Z,20.00
2022-08-07T22:00:28.671Z,20.00
2022-08-07T22:03:08.387Z,20.00
2022-08-07T22:05:48.543Z,19.90
2022-08-07T22:08:21.058Z,20.00
2022-08-07T22:10:59.508Z,19.90
2022-08-07T22:13:51.015Z,19.90
2022-08-07T22:16:38.798Z,19.80
2022-08-07T22:19:23.574Z,19.70
2022-08-07T22:22:17.824Z,19.80
2022-08-07T22:24:57.881Z,19.80
2022-08-07T22:28:07.842Z,19.80
2022-08-07T22:30:27.137Z,19.70
2022-08-07T22:33:05.920Z,19.80
2022-08-07T22:35:41.424Z,19.70
2022-08-07T22:38:20.582Z,19.70
2022-08-07T22:40:59.908Z,19.70
2022-08-07T22:43:56.476Z,19.70
2022-08-07T22:47:17.044Z,19.70
2022-08-07T22:50:13.591Z,19.70
2022-08-07T22:54:05.453Z,19.70
2022-08-07T22:56:20.525Z,19.70
2022-08-07T22:59:25.087Z,19.70
2022-08-07T23:02:27.701Z,19.60
2022-08-07T23:06:09.777Z,19.60
2022-08-07T23:08:31.043Z,19.50
2022-08-07T23:11:13.357Z,19.50
2022-08-07T23:14:10.887Z,19.30
2022-08-07T23:17:03.086Z,19.30
2022-08-07T23:20:02.816Z,19.30
2022-08-07T23:22:45.223Z,19.30
2022-08-07T23:25:28.222Z,19.30
2022-08-07T23:28:28.958Z,19.20
2022-08-07T23:31:18.601Z,19.20
2022-08-07T23:34:41.718Z,19.20
2022-08-07T23:38:00.942Z,19.30
2022-08-07T23:40:37.096Z,19.30
2022-08-07T23:43:46.801Z,19.20
2022-08-07T23:47:04.379Z,19.20
2022-08-07T23:49:53.179Z,19.20
2022-08-07T23:52:59.616Z,19.20
2022-08-07T23:55:52.569Z,19.10
2022-08-07T23:58:26.336Z,19.20
